Airfield :
LOGIN :

Register | Disclaimer

   EN    FR    IT 

 










Legend :    VFR   Marginal VFR   IFR   Intensive IFR   Very Intensive IFR
Visi :
Ceiling :
>= 8 km
>= 3000ft
5 to 8 km
1000 to 3000 ft
1500m to 5 km
500 to 1000 ft
800 to 1500m
200 to 500 ft
< 800m
< 200 ft
Symbols :   Thunderstorms  Fog  Heavy snow  Heavy precipitations  Wind > 20 kt
SIGMETs :     Misc.  Thunderstorms  Icing  Turbulence  Mountain Waves  Volcanic Ashes






- Airport Elevation : 117 ft
- IATA code : NWI


EGSH - Norwich

CURRENT METAR :
  • 061820Z AUTO 31011G23KT 260V350 9999 SCT020/// BKN026/// 12/07 Q0996 NOSIG

EXPIRED METARs :
  • 061750Z AUTO 31013KT 270V360 9999 SCT023/// SCT039/// BKN046/// 12/08 Q0995 NOSIG
  • 061720Z AUTO 30013KT 280V340 9999 SCT018/// BKN023/// BKN042/// 13/08 Q0995 TEMPO SHRA
  • 061650Z 26014KT 200V310 9999 -SHRA FEW005 SCT030 12/08 Q0994 TEMPO 4000 +SHRA
  • 061620Z 23016KT 5000 VCSH FEW021 SCT036CB 12/08 Q0994 TEMPO 4000 +SHRA
  • 061550Z 24013KT 5000 VCSH FEW021 12/10 Q0994 TEMPO 4000 TSRA BKN014

TAF AMD TAF EGSH
Valid from the 06 at 17:00 until the 07 at 00:00 UTC


061732Z 0617/0624 30017KT 9999 SCT030
TEMPO 0617/0620 7000 SHRA
PROB30
TEMPO 0617/0618 30018G28KT 4000 +TSRA BKN014CB
ATIS : +44 1603 420 640



MET'MAP, your aeronautical weather chart ! - Copyright ORBIFLY December 2007 - Disclaimer

ORBIFLY MET'MAP TEAM :

Programming & Development : Alexandra Zaïnal
Concept & original design : Baudouin d'Aumeries
Assistance for programming : Marc-Olivier Méhu
Technical & hardware support : Manuel Goepfert

Contact : metmap@orbifly.com




SOURCES & CREDITS :

   NOAA